Alliance, Nebraska
Current Conditions -  °F | °C
As of 3:53 PM on Tuesday 25 Nov 2014 (Local Time) from KAIA Reporting Station
Overcast Overcast  
Wind Chill: -1°   Ceiling: 5000
Heat Index:   Visibility: 10mi
Dew Point: -1°   Wind: 16mph
Humidity: 70%   Direction: 310°NW
Pressure: 29.85"   Gusts: NA
Location:  42.1°N, 102.87°W
Report Text: KAIA 252253Z AUTO 31014KT 10SM BKN050 OVC060 04/M01 A2985 RMK AO2 PK WND 32027/2158 SLP132 T00391011
Loading
Personal Weather Stations






























Interactive Weather Map New forecast layout! Learn more

10-Day Weather Forecast

Advertisements
Track Severe Weather on mobile